PAMD METAR and TAF weather

Enter ICAO airport designator
Station Type Date Time Source
PAMD METAR 2021/07/28 03:12 UTC NOAA

PAMD 280312Z AUTO 24006KT 10SM FEW008 14/12 A3017 RMK AO2


Station Type Date Time Source
PAMD Decoded METAR 2021/07/28 03:12 UTC NOAA

Middleton Island, Middleton Island Airport, AK, United States (PAMD) 59-26N 146-18W 14M
Jul 27, 2021 - 11:12 PM EDT / 2021.07.28 0312 UTC
Wind: from the WSW (240 degrees) at 7 MPH (6 KT):0
Visibility: 10 mile(s):0
Sky conditions: mostly clear
Temperature: 57 F (14 C)
Dew Point: 53 F (12 C)
Relative Humidity: 87%
Pressure (altimeter): 30.17 in. Hg (1021 hPa)
ob: PAMD 280312Z AUTO 24006KT 10SM FEW008 14/12 A3017 RMK AO2
cycle: 3

Station Type Date Time Source
PAMD TAF UTC NOAA

Error!

Example: see airport list